Filbert, West Virginia
Current Conditions -  °F | °C
As of 11:06 AM on Thursday 18 Dec 2014 (Local Time) from KBLF Reporting Station
Few Clouds Few Clouds  
Wind Chill: 31°   Ceiling: Unl
Heat Index: 31°   Visibility: 10mi
Dew Point: 22°   Wind: 3mph
Humidity: 69%   Direction: NA
Pressure: 30.14"   Gusts: NA
Location:  37.3352°N, 81.5394°W
Report Text: KBLF 181606Z AUTO VRB03KT 10SM FEW012 M01/M06 A3014 RMK AO2 T10061056
Loading
Personal Weather Stations






























Interactive Weather Map New forecast layout! Learn more

10-Day Weather Forecast

Advertisements
Track Severe Weather on mobile